La Tontouta International Airport
NWWW : now visible

Airfield :











YOU CAN JOIN US ON...

 
LOGIN :

Register | Disclaimer

   EN    FR    IT 

 









Legend :    VFR   Marginal VFR   IFR   Intensive IFR   Very Intensive IFR
Visi :
Ceiling :
>= 8 km
>= 3000ft
5 to 8 km
1000 to 3000 ft
1500m to 5 km
500 to 1000 ft
800 to 1500m
200 to 500 ft
< 800m
< 200 ft
Symbols :   Thunderstorms  Fog  Heavy snow  Heavy precipitations  Wind > 20 kt






- Airport Elevation : 52 ft
- IATA code : NOU


NWWW - La Tontouta International

CURRENT METAR :
  • 250800Z AUTO 05004KT 360V100 9999 BKN068 OVC078 20/18 Q1020 TEMPO 4000 RA

EXPIRED METARs :
  • 250730Z AUTO 03005KT 360V070 9999 BKN068 OVC084 20/18 Q1019 TEMPO 4000 RA
  • 250700Z AUTO 06004KT 030V110 9999 BKN068 OVC078 20/18 Q1019 TEMPO 4000 RA
  • 250630Z AUTO 02007KT 350V050 9999 BKN068 OVC080 21/17 Q1019 TEMPO 4000 RA
  • 250600Z AUTO 02008KT 360V060 9999 OVC064/// 21/17 Q1018 TEMPO 4000 RA
  • 250530Z AUTO 02010KT 9999 BKN066/// OVC084/// 21/17 Q1018

TAF TAF NWWW
Valid from the 25 at 06:00 until the 26 at 06:00 UTC


250500Z 2506/2606 VRB02KT 9999 FEW045 BKN060
TEMPO 2506/2510 4000 RA
PROB40
TEMPO 2515/2524 4000 SHRA BKN009
NFFF FIR / Oceania



MET'MAP, your aeronautical weather chart ! - Copyright ORBIFLY December 2007 - Disclaimer

ORBIFLY MET'MAP TEAM :

Programming & Development : Alexandra Zaïnal
Concept & original design : Baudouin d'Aumeries
Assistance for programming : Marc-Olivier Méhu
Technical & hardware support : Manuel Goepfert

Contact : metmap@orbifly.com




SOURCES & CREDITS :

   NOAA       Earth
Advisory